createdAt,value
2019-04-21T00:00:31.824Z,13.39
2019-04-21T00:01:35.621Z,13.42
2019-04-21T00:02:35.784Z,13.38
2019-04-21T00:03:38.334Z,13.36
2019-04-21T00:04:42.944Z,13.42
2019-04-21T00:05:53.256Z,13.41
2019-04-21T00:06:48.549Z,13.30
2019-04-21T00:07:51.082Z,13.29
2019-04-21T00:08:50.829Z,13.32
2019-04-21T00:09:56.380Z,13.33
2019-04-21T00:10:57.787Z,13.36
2019-04-21T00:11:57.175Z,13.32
2019-04-21T00:12:49.446Z,13.30
2019-04-21T00:13:42.495Z,13.26
2019-04-21T00:14:43.818Z,13.28
2019-04-21T00:15:38.694Z,13.29
2019-04-21T00:16:39.088Z,13.30
2019-04-21T00:17:32.073Z,13.23
2019-04-21T00:18:40.866Z,13.28
2019-04-21T00:19:34.955Z,13.15
2019-04-21T00:20:39.227Z,13.19
2019-04-21T00:21:38.485Z,13.14
2019-04-21T00:22:44.307Z,13.08
2019-04-21T00:23:49.617Z,13.10
2019-04-21T00:24:44.328Z,13.20
2019-04-21T00:25:46.012Z,13.14
2019-04-21T00:26:49.320Z,13.12
2019-04-21T00:27:46.479Z,13.07
2019-04-21T00:28:59.488Z,13.05
2019-04-21T00:29:48.248Z,13.04
2019-04-21T00:30:50.913Z,13.05
2019-04-21T00:31:45.571Z,13.05
2019-04-21T00:32:41.822Z,12.95
2019-04-21T00:33:35.254Z,12.89
2019-04-21T00:34:32.136Z,12.97
2019-04-21T00:35:39.588Z,12.93
2019-04-21T00:36:43.028Z,12.92
2019-04-21T00:37:53.469Z,12.95
2019-04-21T00:39:03.063Z,13.04
2019-04-21T00:40:17.848Z,12.95
2019-04-21T00:40:54.161Z,12.96
2019-04-21T00:41:53.669Z,13.04
2019-04-21T00:42:48.869Z,13.04
2019-04-21T00:43:44.785Z,12.96
2019-04-21T00:44:51.151Z,13.04
2019-04-21T00:45:43.528Z,13.00
2019-04-21T00:46:45.306Z,13.03
2019-04-21T00:47:51.112Z,13.04
2019-04-21T00:48:55.112Z,13.03
2019-04-21T00:49:53.910Z,12.97
2019-04-21T00:51:03.546Z,12.86
2019-04-21T00:52:03.897Z,12.87
2019-04-21T00:53:05.705Z,12.86
2019-04-21T00:54:02.807Z,12.85
2019-04-21T00:55:01.721Z,12.79
2019-04-21T00:55:51.400Z,12.86
2019-04-21T00:56:56.663Z,12.86
2019-04-21T00:57:58.500Z,12.87
2019-04-21T00:58:53.409Z,12.83
2019-04-21T00:59:54.459Z,12.87
2019-04-21T01:01:48.095Z,12.83
2019-04-21T01:02:57.588Z,12.89
2019-04-21T01:03:55.026Z,12.83
2019-04-21T01:04:57.652Z,12.86
2019-04-21T01:05:58.430Z,12.85
2019-04-21T01:06:47.950Z,12.86
2019-04-21T01:07:50.615Z,12.78
2019-04-21T01:08:46.823Z,12.78
2019-04-21T01:09:45.021Z,12.83
2019-04-21T01:10:43.566Z,12.83
2019-04-21T01:11:49.466Z,12.82
2019-04-21T01:12:56.318Z,12.70
2019-04-21T01:13:58.290Z,12.74
2019-04-21T01:14:56.927Z,12.65
2019-04-21T01:15:54.570Z,12.64
2019-04-21T01:16:51.984Z,12.68
2019-04-21T01:17:52.165Z,12.53
2019-04-21T01:18:49.272Z,12.65
2019-04-21T01:19:47.098Z,12.50
2019-04-21T01:20:30.446Z,12.65
2019-04-21T01:21:29.449Z,12.62
2019-04-21T01:22:29.429Z,12.54
2019-04-21T01:23:29.782Z,12.54
2019-04-21T01:24:34.701Z,12.53
2019-04-21T01:25:39.331Z,12.50
2019-04-21T01:26:41.478Z,12.50
2019-04-21T01:27:52.062Z,12.56
2019-04-21T01:28:49.568Z,12.52
2019-04-21T01:29:53.121Z,12.38
2019-04-21T01:30:54.903Z,12.59
2019-04-21T01:31:48.067Z,12.37
2019-04-21T01:32:57.565Z,12.35
2019-04-21T01:33:50.797Z,12.42
2019-04-21T01:34:51.629Z,12.35
2019-04-21T01:35:48.220Z,12.41
2019-04-21T01:36:46.075Z,12.46
2019-04-21T01:37:57.789Z,12.41
2019-04-21T01:38:58.988Z,12.41
2019-04-21T01:39:53.583Z,12.50
2019-04-21T01:40:55.493Z,12.46
2019-04-21T01:41:51.243Z,12.45
2019-04-21T01:42:51.044Z,12.42
2019-04-21T01:43:49.164Z,12.37
2019-04-21T01:44:52.845Z,12.35
2019-04-21T01:45:48.966Z,12.38
2019-04-21T01:46:45.418Z,12.27
2019-04-21T01:47:49.085Z,12.27
2019-04-21T01:48:44.338Z,12.37
2019-04-21T01:49:46.661Z,12.19
2019-04-21T01:50:49.690Z,12.21
2019-04-21T01:52:03.090Z,12.10
2019-04-21T01:53:11.531Z,12.13
2019-04-21T01:53:48.602Z,11.96
2019-04-21T01:54:48.164Z,12.10
2019-04-21T01:55:52.832Z,12.05
2019-04-21T01:56:51.227Z,12.09
2019-04-21T01:57:45.159Z,12.05
2019-04-21T01:58:42.794Z,12.04
2019-04-21T01:59:42.579Z,12.02
2019-04-21T02:00:45.605Z,11.95
2019-04-21T02:01:56.363Z,11.91
2019-04-21T02:02:56.637Z,11.99
2019-04-21T02:04:02.669Z,11.88
2019-04-21T02:04:57.971Z,11.96
2019-04-21T02:05:58.664Z,11.94
2019-04-21T02:06:50.419Z,11.83
2019-04-21T02:07:50.525Z,11.82
2019-04-21T02:08:52.555Z,11.76
2019-04-21T02:09:55.612Z,11.76
2019-04-21T02:10:54.951Z,11.78
2019-04-21T02:11:56.514Z,11.70
2019-04-21T02:12:50.972Z,11.73
2019-04-21T02:13:57.671Z,11.70
2019-04-21T02:14:59.198Z,11.73
2019-04-21T02:15:59.289Z,11.67
2019-04-21T02:16:54.046Z,11.67
2019-04-21T02:17:54.123Z,11.65
2019-04-21T02:18:49.387Z,11.73
2019-04-21T02:19:46.340Z,11.64
2019-04-21T02:20:41.297Z,11.55
2019-04-21T02:21:46.304Z,11.55
2019-04-21T02:23:06.704Z,11.51
2019-04-21T02:23:54.346Z,11.47
2019-04-21T02:24:59.871Z,11.49
2019-04-21T02:25:50.591Z,11.43
2019-04-21T02:26:57.291Z,11.39
2019-04-21T02:28:55.827Z,11.44
2019-04-21T02:29:55.628Z,11.42
2019-04-21T02:31:05.013Z,11.43
2019-04-21T02:32:05.677Z,11.39
2019-04-21T02:33:19.612Z,11.35
2019-04-21T02:33:58.518Z,11.33
2019-04-21T02:35:25.496Z,11.29
2019-04-21T02:38:03.648Z,11.27
2019-04-21T02:40:08.578Z,11.29
2019-04-21T02:42:15.779Z,11.24
2019-04-21T02:43:07.365Z,11.22
2019-04-21T02:44:59.912Z,11.15
2019-04-21T02:46:10.550Z,11.17
2019-04-21T02:47:24.110Z,11.24
2019-04-21T02:50:50.084Z,11.28
2019-04-21T02:52:02.892Z,11.29
2019-04-21T02:53:01.327Z,11.37
2019-04-21T02:54:35.917Z,11.29
2019-04-21T02:55:03.745Z,11.46
2019-04-21T02:56:01.069Z,11.36
2019-04-21T02:57:02.009Z,11.29
2019-04-21T02:58:06.200Z,11.24
2019-04-21T02:59:02.392Z,11.22
2019-04-21T03:01:04.640Z,11.17
2019-04-21T03:02:17.206Z,11.11
2019-04-21T03:03:05.760Z,11.10
2019-04-21T03:04:06.208Z,11.10
2019-04-21T03:05:07.397Z,11.10
2019-04-21T03:05:59.615Z,11.09
2019-04-21T03:07:09.412Z,11.07
2019-04-21T03:08:15.361Z,11.06
2019-04-21T03:09:05.906Z,11.14
2019-04-21T03:09:59.818Z,11.06
2019-04-21T03:11:04.300Z,11.10
2019-04-21T03:12:04.987Z,11.00
2019-04-21T03:13:07.667Z,10.99
2019-04-21T03:14:10.434Z,11.09
2019-04-21T03:15:06.084Z,11.03
2019-04-21T03:16:09.812Z,10.96
2019-04-21T03:16:58.227Z,10.96
2019-04-21T03:18:12.995Z,10.94
2019-04-21T03:19:06.645Z,11.06
2019-04-21T03:19:59.878Z,11.03
2019-04-21T03:21:07.153Z,11.14
2019-04-21T03:22:10.208Z,11.09
2019-04-21T03:25:21.402Z,11.29
2019-04-21T03:26:20.378Z,11.15
2019-04-21T03:27:12.137Z,11.25
2019-04-21T03:28:04.944Z,11.21
2019-04-21T03:29:59.263Z,11.33
2019-04-21T03:31:19.559Z,11.43
2019-04-21T03:35:37.910Z,11.51
2019-04-21T03:38:55.373Z,11.49
2019-04-21T03:39:59.744Z,11.46
2019-04-21T03:41:01.105Z,11.43
2019-04-21T03:42:57.158Z,11.46
2019-04-21T03:43:59.184Z,11.44
2019-04-21T03:47:06.876Z,11.40
2019-04-21T03:48:05.300Z,11.37
2019-04-21T03:49:02.509Z,11.44
2019-04-21T03:50:04.615Z,11.40
2019-04-21T03:50:58.785Z,11.42
2019-04-21T03:52:03.536Z,11.40
2019-04-21T03:55:19.306Z,11.44
2019-04-21T03:56:12.432Z,11.42
2019-04-21T03:57:10.528Z,11.39
2019-04-21T04:00:16.033Z,11.39
2019-04-21T04:01:05.880Z,11.37
2019-04-21T04:02:08.245Z,11.40
2019-04-21T04:03:08.013Z,11.43
2019-04-21T04:04:08.483Z,11.33
2019-04-21T04:05:05.707Z,11.37
2019-04-21T04:08:17.894Z,11.39
2019-04-21T04:10:03.693Z,11.39
2019-04-21T04:12:57.083Z,11.44
2019-04-21T04:14:03.453Z,11.42
2019-04-21T04:15:02.920Z,11.46
2019-04-21T04:16:06.957Z,11.46
2019-04-21T04:17:06.088Z,11.46
2019-04-21T04:17:58.787Z,11.54
2019-04-21T04:20:01.438Z,11.51
2019-04-21T04:21:06.109Z,11.49
2019-04-21T04:24:08.983Z,11.51
2019-04-21T04:25:11.171Z,11.46
2019-04-21T04:25:59.450Z,11.47
2019-04-21T04:27:20.900Z,11.44
2019-04-21T04:28:14.256Z,11.46
2019-04-21T04:29:03.908Z,11.44
2019-04-21T04:29:59.284Z,11.40
2019-04-21T04:32:16.558Z,11.43
2019-04-21T04:33:03.325Z,11.42
2019-04-21T04:34:04.877Z,11.42
2019-04-21T04:35:03.815Z,11.39
2019-04-21T04:37:05.104Z,11.32
2019-04-21T04:38:00.487Z,11.21
2019-04-21T04:39:17.978Z,11.15
2019-04-21T04:40:17.396Z,11.22
2019-04-21T04:42:04.929Z,11.11
2019-04-21T04:42:56.998Z,11.11
2019-04-21T04:44:04.907Z,11.10
2019-04-21T04:45:04.326Z,11.09
2019-04-21T04:47:05.831Z,11.07
2019-04-21T04:47:59.183Z,11.09
2019-04-21T04:49:02.068Z,11.10
2019-04-21T04:49:55.174Z,11.06
2019-04-21T04:54:22.558Z,11.10
2019-04-21T04:56:05.782Z,11.11
2019-04-21T04:57:08.382Z,11.02
2019-04-21T04:57:59.047Z,11.09
2019-04-21T05:00:15.478Z,11.09
2019-04-21T05:01:08.630Z,11.09
2019-04-21T05:02:20.033Z,11.09
2019-04-21T05:02:58.775Z,11.03
2019-04-21T05:03:56.917Z,11.09
2019-04-21T05:05:07.352Z,11.03
2019-04-21T05:06:19.374Z,11.06
2019-04-21T05:06:56.320Z,10.99
2019-04-21T05:08:15.921Z,10.97
2019-04-21T05:09:10.934Z,11.02
2019-04-21T05:10:54.548Z,10.99
2019-04-21T05:11:20.833Z,11.04
2019-04-21T05:13:04.299Z,11.09
2019-04-21T05:15:06.501Z,11.10
2019-04-21T05:16:02.173Z,11.06
2019-04-21T05:17:14.175Z,11.10
2019-04-21T05:20:08.580Z,11.09
2019-04-21T05:21:04.358Z,11.09
2019-04-21T05:21:59.525Z,11.11
2019-04-21T05:23:05.941Z,11.11
2019-04-21T05:23:50.100Z,11.11
2019-04-21T05:24:44.094Z,11.21
2019-04-21T05:26:46.267Z,11.24
2019-04-21T05:27:45.178Z,11.33
2019-04-21T05:28:43.628Z,11.47
2019-04-21T05:29:55.653Z,11.72
2019-04-21T05:30:56.052Z,11.91
2019-04-21T05:31:56.181Z,12.04
2019-04-21T05:32:52.499Z,12.16
2019-04-21T05:33:54.259Z,12.21
2019-04-21T05:34:50.489Z,12.34
2019-04-21T05:35:51.868Z,12.45
2019-04-21T05:36:45.984Z,12.53
2019-04-21T05:37:50.359Z,12.53
2019-04-21T05:38:41.839Z,12.53
2019-04-21T05:39:42.306Z,12.65
2019-04-21T05:40:38.822Z,12.70
2019-04-21T05:41:38.645Z,12.65
2019-04-21T05:42:45.868Z,12.72
2019-04-21T05:43:47.511Z,12.82
2019-04-21T05:45:56.748Z,12.79
2019-04-21T05:47:00.969Z,12.86
2019-04-21T05:47:55.884Z,12.96
2019-04-21T05:48:45.482Z,13.07
2019-04-21T05:49:48.615Z,13.29
2019-04-21T05:50:47.921Z,13.51
2019-04-21T05:51:44.284Z,13.45
2019-04-21T05:52:43.004Z,13.33
2019-04-21T05:53:52.100Z,13.30
2019-04-21T05:55:49.186Z,13.22
2019-04-21T05:56:51.614Z,13.19
2019-04-21T05:57:48.120Z,13.25
2019-04-21T05:58:48.050Z,13.11
2019-04-21T05:59:49.085Z,13.15
2019-04-21T06:01:08.715Z,13.05
2019-04-21T06:02:02.218Z,13.11
2019-04-21T06:02:50.978Z,13.17
2019-04-21T06:03:59.677Z,13.10
2019-04-21T06:05:10.456Z,13.04
2019-04-21T06:06:13.807Z,13.03
2019-04-21T06:07:02.094Z,13.01
2019-04-21T06:07:48.979Z,12.97
2019-04-21T06:08:48.114Z,12.93
2019-04-21T06:11:51.395Z,12.97
2019-04-21T06:12:50.958Z,12.89
2019-04-21T06:13:55.087Z,13.00
2019-04-21T06:15:56.193Z,12.95
2019-04-21T06:17:49.250Z,13.11
2019-04-21T06:18:53.149Z,13.23
2019-04-21T06:20:57.588Z,13.28
2019-04-21T06:21:45.189Z,13.30
2019-04-21T06:22:52.730Z,13.30
2019-04-21T06:23:47.898Z,13.30
2019-04-21T06:25:15.612Z,13.42
2019-04-21T06:26:11.813Z,13.42
2019-04-21T06:27:04.924Z,13.44
2019-04-21T06:27:50.817Z,13.29
2019-04-21T06:29:04.189Z,13.39
2019-04-21T06:29:49.147Z,13.33
2019-04-21T06:30:59.660Z,13.41
2019-04-21T06:32:17.739Z,13.52
2019-04-21T06:32:49.283Z,13.41
2019-04-21T06:33:50.465Z,13.49
2019-04-21T06:35:07.180Z,13.54
2019-04-21T06:36:11.370Z,13.52
2019-04-21T06:37:54.403Z,13.57
2019-04-21T06:38:59.689Z,13.55
2019-04-21T06:40:01.863Z,13.63
2019-04-21T06:40:48.659Z,13.64
2019-04-21T06:41:49.791Z,13.73
2019-04-21T06:42:52.282Z,13.69
2019-04-21T06:43:56.606Z,13.73
2019-04-21T06:45:03.748Z,13.81
2019-04-21T06:45:58.932Z,13.85
2019-04-21T06:46:46.000Z,13.75
2019-04-21T06:47:49.920Z,13.75
2019-04-21T06:48:56.969Z,13.78
2019-04-21T06:49:48.612Z,13.81
2019-04-21T06:50:52.629Z,13.85
2019-04-21T06:51:46.851Z,13.92
2019-04-21T06:52:56.245Z,13.89
2019-04-21T06:53:54.526Z,13.87
2019-04-21T06:55:12.069Z,13.87
2019-04-21T06:55:44.121Z,13.78
2019-04-21T06:57:26.001Z,13.87
2019-04-21T06:57:51.872Z,13.95
2019-04-21T06:58:51.437Z,13.89
2019-04-21T06:59:43.948Z,14.00
2019-04-21T07:00:45.599Z,14.00
2019-04-21T07:01:54.744Z,13.99
2019-04-21T07:02:52.137Z,14.02
2019-04-21T07:03:58.952Z,14.04
2019-04-21T07:04:50.517Z,14.06
2019-04-21T07:05:56.061Z,14.02
2019-04-21T07:06:56.333Z,14.09
2019-04-21T07:07:55.218Z,14.07
2019-04-21T07:08:56.609Z,14.09
2019-04-21T07:09:52.773Z,14.07
2019-04-21T07:10:54.620Z,14.12
2019-04-21T07:11:48.768Z,14.06
2019-04-21T07:12:49.690Z,14.14
2019-04-21T07:13:50.886Z,14.10
2019-04-21T07:14:48.249Z,14.14
2019-04-21T07:15:53.889Z,14.12
2019-04-21T07:16:51.022Z,14.17
2019-04-21T07:17:51.220Z,14.15
2019-04-21T07:18:56.599Z,14.17
2019-04-21T07:20:07.419Z,14.14
2019-04-21T07:20:50.555Z,14.17
2019-04-21T07:21:46.753Z,14.14
2019-04-21T07:22:50.536Z,14.18
2019-04-21T07:23:57.222Z,14.20
2019-04-21T07:24:47.979Z,14.25
2019-04-21T07:25:52.903Z,14.25
2019-04-21T07:26:51.303Z,14.27
2019-04-21T07:27:46.867Z,14.39
2019-04-21T07:28:57.122Z,14.27
2019-04-21T07:29:53.412Z,14.36
2019-04-21T07:30:57.538Z,14.37
2019-04-21T07:31:55.889Z,14.45
2019-04-21T07:32:55.927Z,14.42
2019-04-21T07:34:51.897Z,14.50
2019-04-21T07:35:43.277Z,14.47
2019-04-21T07:36:54.843Z,14.45
2019-04-21T07:37:48.119Z,14.45
2019-04-21T07:38:48.461Z,14.47
2019-04-21T07:39:46.905Z,14.54
2019-04-21T07:40:42.703Z,14.57
2019-04-21T07:41:44.075Z,14.43
2019-04-21T07:42:45.330Z,14.52
2019-04-21T07:43:42.848Z,14.60
2019-04-21T07:44:40.882Z,14.60
2019-04-21T07:45:40.569Z,14.68
2019-04-21T07:46:41.594Z,14.60
2019-04-21T07:47:48.047Z,14.65
2019-04-21T07:48:49.713Z,14.77
2019-04-21T07:49:53.083Z,14.77
2019-04-21T07:50:47.475Z,14.80
2019-04-21T07:51:50.991Z,14.75
2019-04-21T07:52:49.386Z,14.81
2019-04-21T07:53:49.874Z,14.78
2019-04-21T07:55:03.507Z,14.81
2019-04-21T07:56:33.270Z,14.89
2019-04-21T07:57:39.736Z,14.89
2019-04-21T07:58:49.262Z,15.03
2019-04-21T07:59:59.383Z,14.95
2019-04-21T08:00:51.069Z,15.02
2019-04-21T08:01:48.265Z,15.01
2019-04-21T08:02:49.757Z,15.02
2019-04-21T08:03:47.852Z,15.07
2019-04-21T08:05:07.436Z,15.06
2019-04-21T08:05:47.093Z,15.03
2019-04-21T08:06:47.806Z,15.01
2019-04-21T08:08:12.125Z,15.06
2019-04-21T08:08:46.672Z,15.14
2019-04-21T08:09:46.762Z,15.19
2019-04-21T08:11:44.197Z,15.21
2019-04-21T08:12:43.349Z,15.28
2019-04-21T08:13:53.302Z,15.25
2019-04-21T08:14:46.477Z,15.25
2019-04-21T08:15:48.194Z,15.32
2019-04-21T08:16:55.664Z,15.27
2019-04-21T08:17:47.273Z,15.32
2019-04-21T08:18:47.230Z,15.34
2019-04-21T08:19:43.325Z,15.35
2019-04-21T08:20:41.898Z,15.34
2019-04-21T08:22:51.679Z,15.47
2019-04-21T08:23:43.409Z,15.47
2019-04-21T08:24:50.790Z,15.54
2019-04-21T08:25:56.992Z,15.46
2019-04-21T08:27:06.385Z,15.59
2019-04-21T08:27:54.547Z,15.54
2019-04-21T08:28:47.531Z,15.57
2019-04-21T08:29:46.475Z,15.69
2019-04-21T08:30:44.443Z,15.64
2019-04-21T08:32:52.772Z,15.71
2019-04-21T08:34:09.885Z,15.65
2019-04-21T08:34:55.751Z,15.84
2019-04-21T08:36:03.352Z,15.78
2019-04-21T08:36:47.784Z,15.83
2019-04-21T08:37:43.323Z,15.92
2019-04-21T08:38:51.576Z,15.93
2019-04-21T08:39:59.383Z,15.89
2019-04-21T08:40:40.824Z,15.96
2019-04-21T08:41:45.169Z,15.96
2019-04-21T08:42:46.720Z,15.90
2019-04-21T08:43:45.204Z,16.04
2019-04-21T08:44:47.854Z,16.04
2019-04-21T08:45:47.806Z,16.07
2019-04-21T08:46:46.104Z,16.15
2019-04-21T08:47:45.825Z,16.07
2019-04-21T08:48:49.477Z,16.17
2019-04-21T08:49:49.070Z,16.15
2019-04-21T08:50:44.499Z,16.14
2019-04-21T08:51:51.896Z,16.11
2019-04-21T08:52:49.301Z,16.20
2019-04-21T08:53:49.293Z,16.23
2019-04-21T08:54:47.203Z,16.27
2019-04-21T08:55:49.261Z,16.25
2019-04-21T08:56:46.781Z,16.24
2019-04-21T08:57:50.475Z,16.34
2019-04-21T08:58:54.404Z,16.33
2019-04-21T08:59:45.941Z,16.34
2019-04-21T09:00:46.810Z,16.42
2019-04-21T09:01:42.703Z,16.43
2019-04-21T09:02:47.509Z,16.45
2019-04-21T09:03:43.016Z,16.52
2019-04-21T09:04:46.320Z,16.56
2019-04-21T09:05:42.616Z,16.60
2019-04-21T09:07:10.624Z,16.61
2019-04-21T09:07:45.868Z,16.63
2019-04-21T09:08:47.508Z,16.67
2019-04-21T09:09:47.544Z,16.75
2019-04-21T09:10:39.890Z,16.71
2019-04-21T09:11:40.531Z,16.75
2019-04-21T09:12:43.160Z,16.75
2019-04-21T09:13:42.604Z,16.73
2019-04-21T09:14:42.973Z,16.85
2019-04-21T09:15:41.597Z,16.83
2019-04-21T09:16:41.226Z,16.83
2019-04-21T09:17:36.738Z,16.93
2019-04-21T09:18:38.144Z,16.93
2019-04-21T09:19:52.857Z,16.98
2019-04-21T09:20:47.347Z,17.06
2019-04-21T09:21:43.577Z,17.16
2019-04-21T09:22:41.636Z,17.21
2019-04-21T09:23:45.558Z,17.21
2019-04-21T09:24:47.753Z,17.23
2019-04-21T09:25:46.555Z,17.22
2019-04-21T09:26:43.170Z,17.30
2019-04-21T09:27:43.551Z,17.26
2019-04-21T09:28:39.602Z,17.31
2019-04-21T09:29:31.022Z,17.33
2019-04-21T09:30:26.346Z,17.38
2019-04-21T09:31:31.862Z,17.37
2019-04-21T09:32:27.629Z,17.55
2019-04-21T09:33:33.459Z,17.56
2019-04-21T09:34:35.901Z,17.55
2019-04-21T09:35:25.124Z,17.49
2019-04-21T09:36:33.412Z,17.52
2019-04-21T09:37:39.334Z,17.66
2019-04-21T09:38:33.865Z,17.62
2019-04-21T09:39:29.200Z,17.70
2019-04-21T09:40:30.104Z,17.84
2019-04-21T09:41:27.408Z,17.87
2019-04-21T09:42:33.336Z,17.89
2019-04-21T09:43:35.477Z,17.87
2019-04-21T09:44:30.866Z,17.84
2019-04-21T09:45:26.488Z,17.86
2019-04-21T09:46:25.340Z,17.86
2019-04-21T09:47:33.615Z,17.86
2019-04-21T09:48:26.630Z,17.84
2019-04-21T09:49:29.044Z,17.86
2019-04-21T09:50:24.966Z,17.90
2019-04-21T09:51:23.975Z,17.90
2019-04-21T09:52:29.263Z,17.89
2019-04-21T09:53:31.229Z,18.14
2019-04-21T09:54:29.829Z,18.18
2019-04-21T09:55:31.754Z,18.21
2019-04-21T09:56:34.352Z,18.26
2019-04-21T09:57:35.050Z,18.32
2019-04-21T09:58:32.867Z,18.30
2019-04-21T09:59:30.011Z,18.29
2019-04-21T10:00:29.361Z,18.33
2019-04-21T10:01:32.243Z,18.36
2019-04-21T10:02:34.184Z,18.36
2019-04-21T10:03:26.211Z,18.30
2019-04-21T10:04:23.834Z,18.35
2019-04-21T10:05:25.059Z,18.36
2019-04-21T10:06:23.835Z,18.36
2019-04-21T10:07:30.764Z,18.30
2019-04-21T10:08:25.085Z,18.36
2019-04-21T10:09:24.293Z,18.35
2019-04-21T10:10:23.771Z,18.30
2019-04-21T10:11:24.527Z,18.42
2019-04-21T10:12:23.727Z,18.45
2019-04-21T10:13:25.233Z,18.47
2019-04-21T10:14:24.306Z,18.48
2019-04-21T10:15:26.276Z,18.48
2019-04-21T10:16:23.930Z,18.33
2019-04-21T10:17:23.978Z,18.29
2019-04-21T10:18:23.659Z,18.35
2019-04-21T10:19:23.687Z,18.35
2019-04-21T10:20:24.502Z,18.33
2019-04-21T10:21:25.831Z,18.37
2019-04-21T10:22:23.626Z,18.35
2019-04-21T10:23:23.616Z,18.27
2019-04-21T10:24:24.543Z,18.44
2019-04-21T10:25:24.984Z,18.48
2019-04-21T10:26:24.379Z,18.50
2019-04-21T10:27:23.574Z,18.51
2019-04-21T10:28:23.566Z,18.45
2019-04-21T10:29:26.462Z,18.47
2019-04-21T10:30:24.721Z,18.47
2019-04-21T10:31:24.836Z,18.47
2019-04-21T10:32:25.256Z,18.51
2019-04-21T10:33:24.193Z,18.52
2019-04-21T10:34:23.513Z,18.52
2019-04-21T10:35:25.015Z,18.50
2019-04-21T10:36:24.574Z,18.52
2019-04-21T10:37:36.505Z,18.50
2019-04-21T10:38:34.820Z,18.55
2019-04-21T10:39:24.446Z,18.47
2019-04-21T10:40:23.565Z,18.55
2019-04-21T10:41:23.453Z,18.58
2019-04-21T10:42:23.715Z,18.65
2019-04-21T10:43:24.378Z,18.70
2019-04-21T10:44:23.384Z,18.67
2019-04-21T10:45:23.381Z,18.69
2019-04-21T10:46:24.597Z,18.69
2019-04-21T10:47:24.703Z,18.69
2019-04-21T10:48:23.346Z,18.60
2019-04-21T10:49:24.473Z,18.58
2019-04-21T10:50:24.481Z,18.55
2019-04-21T10:51:23.341Z,18.63
2019-04-21T10:52:23.295Z,18.63
2019-04-21T10:53:23.321Z,18.66
2019-04-21T10:54:24.158Z,18.66
2019-04-21T10:55:40.474Z,18.80
2019-04-21T10:56:31.330Z,18.87
2019-04-21T10:57:24.282Z,18.87
2019-04-21T10:58:24.457Z,18.81
2019-04-21T10:59:24.998Z,18.76
2019-04-21T11:00:24.015Z,18.72
2019-04-21T11:01:23.293Z,18.82
2019-04-21T11:02:23.225Z,18.72
2019-04-21T11:03:24.758Z,18.76
2019-04-21T11:04:29.003Z,18.80
2019-04-21T11:05:24.899Z,18.84
2019-04-21T11:06:24.475Z,18.80
2019-04-21T11:07:27.501Z,18.81
2019-04-21T11:08:30.030Z,18.88
2019-04-21T11:09:24.209Z,18.91
2019-04-21T11:10:23.127Z,18.90
2019-04-21T11:11:23.866Z,19.25
2019-04-21T11:12:23.977Z,19.86
2019-04-21T11:13:23.092Z,20.79
2019-04-21T11:14:23.196Z,21.71
2019-04-21T11:15:23.403Z,22.55
2019-04-21T11:16:23.543Z,23.10
2019-04-21T11:17:23.962Z,23.63
2019-04-21T11:18:24.051Z,24.16
2019-04-21T11:19:24.169Z,24.35
2019-04-21T11:20:23.018Z,24.61
2019-04-21T11:21:23.025Z,24.99
2019-04-21T11:22:23.126Z,25.21
2019-04-21T11:23:23.053Z,25.72
2019-04-21T11:24:23.125Z,26.10
2019-04-21T11:25:24.267Z,26.62
2019-04-21T11:26:24.182Z,26.85
2019-04-21T11:27:22.968Z,27.02
2019-04-21T11:28:23.045Z,27.29
2019-04-21T11:29:23.278Z,27.27
2019-04-21T11:30:23.323Z,27.22
2019-04-21T11:31:23.026Z,27.29
2019-04-21T11:32:23.156Z,26.85
2019-04-21T11:33:22.933Z,27.22
2019-04-21T11:34:23.127Z,27.13
2019-04-21T11:35:23.395Z,27.55
2019-04-21T11:36:22.931Z,27.87
2019-04-21T11:37:24.031Z,28.03
2019-04-21T11:38:26.623Z,28.49
2019-04-21T11:39:35.063Z,28.83
2019-04-21T11:40:25.849Z,29.11
2019-04-21T11:41:23.829Z,29.26
2019-04-21T11:42:23.790Z,29.46
2019-04-21T11:43:23.973Z,29.80
2019-04-21T11:44:24.724Z,29.94
2019-04-21T11:45:24.253Z,30.31
2019-04-21T11:46:22.759Z,30.64
2019-04-21T11:47:22.789Z,30.75
2019-04-21T11:48:24.117Z,30.88
2019-04-21T11:49:24.138Z,31.20
2019-04-21T11:50:23.243Z,31.32
2019-04-21T11:51:22.935Z,31.38
2019-04-21T11:52:22.890Z,31.51
2019-04-21T11:53:23.147Z,31.70
2019-04-21T11:54:22.701Z,31.93
2019-04-21T11:55:22.966Z,32.08
2019-04-21T11:56:23.158Z,32.21
2019-04-21T11:57:27.613Z,32.33
2019-04-21T11:58:23.741Z,32.41
2019-04-21T11:59:23.732Z,32.62
2019-04-21T12:00:23.886Z,32.81
2019-04-21T12:01:23.496Z,33.01
2019-04-21T12:02:23.563Z,32.88
2019-04-21T12:03:23.959Z,32.77
2019-04-21T12:04:23.434Z,32.89
2019-04-21T12:05:23.627Z,32.82
2019-04-21T12:06:28.967Z,33.31
2019-04-21T12:07:23.577Z,33.34
2019-04-21T12:08:30.271Z,33.31
2019-04-21T12:09:23.539Z,33.60
2019-04-21T12:10:23.686Z,33.78
2019-04-21T12:11:23.271Z,33.84
2019-04-21T12:12:23.274Z,34.17
2019-04-21T12:13:22.513Z,34.30
2019-04-21T12:14:23.763Z,34.46
2019-04-21T12:15:22.939Z,34.34
2019-04-21T12:16:23.339Z,34.32
2019-04-21T12:17:23.639Z,34.47
2019-04-21T12:18:25.064Z,34.27
2019-04-21T12:19:22.886Z,34.08
2019-04-21T12:20:22.444Z,33.90
2019-04-21T12:21:23.402Z,34.08
2019-04-21T12:22:28.191Z,34.13
2019-04-21T12:23:24.405Z,34.15
2019-04-21T12:24:22.406Z,34.44
2019-04-21T12:25:23.004Z,34.84
2019-04-21T12:26:22.425Z,35.00
2019-04-21T12:27:22.388Z,34.92
2019-04-21T12:28:23.777Z,34.91
2019-04-21T12:29:22.782Z,34.81
2019-04-21T12:30:22.351Z,34.96
2019-04-21T12:31:23.439Z,34.69
2019-04-21T12:32:22.367Z,34.77
2019-04-21T12:33:22.411Z,34.94
2019-04-21T12:34:23.680Z,34.99
2019-04-21T12:35:22.319Z,35.38
2019-04-21T12:36:22.334Z,35.36
2019-04-21T12:37:22.736Z,35.43
2019-04-21T12:38:32.369Z,35.36
2019-04-21T12:39:23.287Z,35.45
2019-04-21T12:40:22.283Z,35.10
2019-04-21T12:41:22.603Z,35.14
2019-04-21T12:42:22.905Z,35.34
2019-04-21T12:43:22.238Z,35.72
2019-04-21T12:44:22.585Z,35.97
2019-04-21T12:45:22.251Z,35.60
2019-04-21T12:46:22.203Z,35.81
2019-04-21T12:47:22.222Z,35.93
2019-04-21T12:48:22.220Z,36.35
2019-04-21T12:49:22.185Z,36.50
2019-04-21T12:50:23.496Z,36.34
2019-04-21T12:51:22.170Z,36.59
2019-04-21T12:52:22.180Z,36.57
2019-04-21T12:53:23.417Z,36.71
2019-04-21T12:54:23.682Z,36.87
2019-04-21T12:55:26.168Z,37.00
2019-04-21T12:56:23.469Z,37.02
2019-04-21T12:57:23.340Z,37.27
2019-04-21T12:58:23.516Z,37.44
2019-04-21T12:59:22.095Z,37.62
2019-04-21T13:01:23.304Z,37.36
2019-04-21T13:02:43.541Z,37.10
2019-04-21T13:03:23.480Z,36.94
2019-04-21T13:04:22.059Z,37.40
2019-04-21T13:05:22.081Z,37.62
2019-04-21T13:06:23.418Z,37.57
2019-04-21T13:07:23.472Z,36.44
2019-04-21T13:08:22.008Z,34.99
2019-04-21T13:09:22.300Z,34.73
2019-04-21T13:10:22.255Z,34.54
2019-04-21T13:11:23.285Z,34.64
2019-04-21T13:12:22.846Z,35.03
2019-04-21T13:13:22.121Z,35.28
2019-04-21T13:14:22.229Z,35.62
2019-04-21T13:15:21.949Z,35.68
2019-04-21T13:16:23.261Z,34.99
2019-04-21T13:17:21.959Z,34.03
2019-04-21T13:18:22.657Z,32.92
2019-04-21T13:19:23.086Z,32.47
2019-04-21T13:20:23.198Z,33.21
2019-04-21T13:21:22.410Z,33.84
2019-04-21T13:22:21.899Z,34.53
2019-04-21T13:23:23.132Z,34.84
2019-04-21T13:24:22.077Z,35.34
2019-04-21T13:25:21.868Z,35.75
2019-04-21T13:26:29.593Z,36.22
2019-04-21T13:27:22.854Z,36.49
2019-04-21T13:28:22.903Z,36.50
2019-04-21T13:29:21.822Z,36.90
2019-04-21T13:30:22.324Z,36.84
2019-04-21T13:31:22.373Z,36.85
2019-04-21T13:32:21.821Z,36.64
2019-04-21T13:33:22.956Z,36.44
2019-04-21T13:34:22.179Z,36.93
2019-04-21T13:35:23.022Z,37.37
2019-04-21T13:36:21.776Z,37.59
2019-04-21T13:37:21.775Z,37.62
2019-04-21T13:38:31.033Z,37.75
2019-04-21T13:39:52.263Z,37.88
2019-04-21T13:40:41.635Z,37.59
2019-04-21T13:41:40.794Z,37.20
2019-04-21T13:42:34.284Z,36.98
2019-04-21T13:43:23.148Z,35.75
2019-04-21T13:44:23.037Z,35.44
2019-04-21T13:45:21.970Z,35.89
2019-04-21T13:46:22.770Z,35.92
2019-04-21T13:47:22.741Z,35.90
2019-04-21T13:48:22.362Z,36.15
2019-04-21T13:49:21.634Z,36.39
2019-04-21T13:50:21.645Z,36.68
2019-04-21T13:51:22.899Z,37.20
2019-04-21T13:52:22.814Z,37.15
2019-04-21T13:53:22.747Z,36.53
2019-04-21T13:54:21.949Z,36.27
2019-04-21T13:55:21.575Z,35.92